createdAt,value
2023-04-28T00:01:16.527Z,69.23
2023-04-28T00:03:43.275Z,69.29
2023-04-28T00:06:11.307Z,70.14
2023-04-28T00:08:37.810Z,69.72
2023-04-28T00:11:04.433Z,70.10
2023-04-28T00:13:30.901Z,70.98
2023-04-28T00:15:57.427Z,71.03
2023-04-28T00:18:24.034Z,71.48
2023-04-28T00:20:50.792Z,71.85
2023-04-28T00:23:17.598Z,72.12
2023-04-28T00:25:44.164Z,72.42
2023-04-28T00:28:11.602Z,72.70
2023-04-28T00:30:38.177Z,72.78
2023-04-28T00:33:04.678Z,72.55
2023-04-28T00:35:31.218Z,73.03
2023-04-28T00:37:57.818Z,73.32
2023-04-28T00:40:24.352Z,73.58
2023-04-28T00:42:51.060Z,73.73
2023-04-28T00:45:17.678Z,72.84
2023-04-28T00:47:44.488Z,72.30
2023-04-28T00:50:11.799Z,71.97
2023-04-28T00:52:38.698Z,72.14
2023-04-28T00:55:07.006Z,71.98
2023-04-28T00:57:34.171Z,71.80
2023-04-28T01:00:01.114Z,71.57
2023-04-28T01:02:30.076Z,70.48
2023-04-28T01:04:58.161Z,69.73
2023-04-28T01:07:25.174Z,69.45
2023-04-28T01:09:51.716Z,69.26
2023-04-28T01:12:23.417Z,68.89
2023-04-28T01:14:52.731Z,68.79
2023-04-28T01:17:19.409Z,68.82
2023-04-28T01:19:46.618Z,69.23
2023-04-28T01:22:16.709Z,69.25
2023-04-28T01:24:44.227Z,68.95
2023-04-28T01:27:13.077Z,68.50
2023-04-28T01:29:41.409Z,68.33
2023-04-28T01:32:08.096Z,68.49
2023-04-28T01:34:34.669Z,69.06
2023-04-28T01:37:01.267Z,69.30
2023-04-28T01:39:29.281Z,69.43
2023-04-28T01:41:56.085Z,69.24
2023-04-28T01:44:22.623Z,69.17
2023-04-28T01:46:49.168Z,69.18
2023-04-28T01:49:15.748Z,69.18
2023-04-28T01:51:42.997Z,69.91
2023-04-28T01:54:09.984Z,70.98
2023-04-28T01:56:36.710Z,72.39
2023-04-28T01:59:03.945Z,72.59
2023-04-28T02:01:31.274Z,72.25
2023-04-28T02:03:58.206Z,70.62
2023-04-28T02:06:24.773Z,68.94
2023-04-28T02:08:51.326Z,67.21
2023-04-28T02:11:17.802Z,66.12
2023-04-28T02:13:44.343Z,65.38
2023-04-28T02:16:11.431Z,65.47
2023-04-28T02:18:38.104Z,65.31
2023-04-28T02:21:11.819Z,65.44
2023-04-28T02:23:38.697Z,65.79
2023-04-28T02:26:05.525Z,65.55
2023-04-28T02:28:32.201Z,65.76
2023-04-28T02:31:24.910Z,65.27
2023-04-28T02:33:53.783Z,65.25
2023-04-28T02:36:20.255Z,65.50
2023-04-28T02:38:46.810Z,65.51
2023-04-28T02:41:15.022Z,65.19
2023-04-28T02:43:42.181Z,64.65
2023-04-28T02:46:08.746Z,64.51
2023-04-28T02:48:37.271Z,64.37
2023-04-28T02:51:03.924Z,64.19
2023-04-28T02:53:31.823Z,64.09
2023-04-28T02:55:59.439Z,64.45
2023-04-28T02:58:26.713Z,64.52
2023-04-28T03:00:53.268Z,64.61
2023-04-28T03:03:19.942Z,64.91
2023-04-28T03:05:46.864Z,64.96
2023-04-28T03:08:13.410Z,64.68
2023-04-28T03:10:40.028Z,65.01
2023-04-28T03:13:07.143Z,64.76
2023-04-28T03:15:33.955Z,64.45
2023-04-28T03:18:00.561Z,64.87
2023-04-28T03:20:27.034Z,64.43
2023-04-28T03:22:53.722Z,64.38
2023-04-28T03:25:20.222Z,64.74
2023-04-28T03:27:49.259Z,64.65
2023-04-28T03:30:16.086Z,64.69
2023-04-28T03:32:42.647Z,64.38
2023-04-28T03:35:09.338Z,65.41
2023-04-28T03:37:36.439Z,65.06
2023-04-28T03:40:03.251Z,64.30
2023-04-28T03:42:37.260Z,65.08
2023-04-28T03:45:08.307Z,64.35
2023-04-28T03:47:35.512Z,63.53
2023-04-28T03:50:02.193Z,64.34
2023-04-28T03:52:28.991Z,63.42
2023-04-28T03:54:55.829Z,62.80
2023-04-28T03:57:22.307Z,62.33
2023-04-28T03:59:51.205Z,62.32
2023-04-28T04:02:17.860Z,62.03
2023-04-28T04:04:45.429Z,61.50
2023-04-28T04:07:12.085Z,61.41
2023-04-28T04:09:39.772Z,61.31
2023-04-28T04:12:06.568Z,61.87
2023-04-28T04:14:33.373Z,62.05
2023-04-28T04:17:00.172Z,61.50
2023-04-28T04:19:28.049Z,61.02
2023-04-28T04:21:55.448Z,60.54
2023-04-28T04:24:22.417Z,60.20
2023-04-28T04:26:49.296Z,60.17
2023-04-28T04:29:37.501Z,60.39
2023-04-28T04:32:11.074Z,59.49
2023-04-28T04:34:38.380Z,59.23
2023-04-28T04:37:04.969Z,58.41
2023-04-28T04:39:33.191Z,57.26
2023-04-28T04:42:00.706Z,56.21
2023-04-28T04:44:44.958Z,57.22
2023-04-28T04:47:20.490Z,56.40
2023-04-28T04:49:48.143Z,56.71
2023-04-28T04:52:14.952Z,57.74
2023-04-28T04:54:41.517Z,56.80
2023-04-28T04:57:10.401Z,57.64
2023-04-28T04:59:55.756Z,56.00
2023-04-28T05:02:22.581Z,56.93
2023-04-28T05:04:49.397Z,56.40
2023-04-28T05:07:16.851Z,55.94
2023-04-28T05:09:43.562Z,54.26
2023-04-28T05:12:11.796Z,56.02
2023-04-28T05:14:38.289Z,55.28
2023-04-28T05:17:04.952Z,53.92
2023-04-28T05:19:37.181Z,53.58
2023-04-28T05:22:04.128Z,51.63
2023-04-28T05:24:31.911Z,50.78
2023-04-28T05:26:59.180Z,49.57
2023-04-28T05:29:25.679Z,49.85
2023-04-28T05:31:52.910Z,50.32
2023-04-28T05:34:21.791Z,48.94
2023-04-28T05:36:48.546Z,49.67
2023-04-28T05:39:17.348Z,51.49
2023-04-28T05:41:43.851Z,50.91
2023-04-28T05:44:11.130Z,50.09
2023-04-28T05:46:37.773Z,48.77
2023-04-28T05:49:05.580Z,46.28
2023-04-28T05:51:36.191Z,45.61
2023-04-28T05:54:03.265Z,45.21
2023-04-28T05:56:31.204Z,46.63
2023-04-28T05:59:00.845Z,45.60
2023-04-28T06:01:27.295Z,46.06
2023-04-28T06:03:54.238Z,46.27
2023-04-28T06:06:21.785Z,45.03
2023-04-28T06:08:48.432Z,43.55
2023-04-28T06:11:14.900Z,44.46
2023-04-28T06:13:41.498Z,44.75
2023-04-28T06:16:08.206Z,44.97
2023-04-28T06:18:35.541Z,43.96
2023-04-28T06:21:03.607Z,43.58
2023-04-28T06:23:30.235Z,42.43
2023-04-28T06:25:57.967Z,41.74
2023-04-28T06:28:24.494Z,40.10
2023-04-28T06:30:53.336Z,41.00
2023-04-28T06:33:19.881Z,40.74
2023-04-28T06:35:46.774Z,39.22
2023-04-28T06:38:15.456Z,40.14
2023-04-28T06:40:42.018Z,40.17
2023-04-28T06:43:08.603Z,40.78
2023-04-28T06:45:42.782Z,41.97
2023-04-28T06:48:10.203Z,42.48
2023-04-28T06:50:38.560Z,42.69
2023-04-28T06:53:07.662Z,41.00
2023-04-28T06:55:34.435Z,41.70
2023-04-28T06:58:01.397Z,42.69
2023-04-28T07:00:27.991Z,42.59
2023-04-28T07:02:54.746Z,42.27
2023-04-28T07:05:21.309Z,44.36
2023-04-28T07:07:47.939Z,42.33
2023-04-28T07:10:15.658Z,42.52
2023-04-28T07:12:42.256Z,43.27
2023-04-28T07:15:10.094Z,42.60
2023-04-28T07:17:36.929Z,43.81
2023-04-28T07:20:04.849Z,43.62
2023-04-28T07:22:31.391Z,42.50
2023-04-28T07:24:57.873Z,42.53
2023-04-28T07:27:24.365Z,42.32
2023-04-28T07:29:50.887Z,42.01
2023-04-28T07:32:17.657Z,41.70
2023-04-28T07:34:44.315Z,42.98
2023-04-28T07:37:12.010Z,41.36
2023-04-28T07:39:40.446Z,41.05
2023-04-28T07:42:07.107Z,42.57
2023-04-28T07:44:33.960Z,42.27
2023-04-28T07:47:01.044Z,42.16
2023-04-28T07:49:30.737Z,41.56
2023-04-28T07:51:57.349Z,42.65
2023-04-28T07:54:23.939Z,41.24
2023-04-28T07:56:50.408Z,41.03
2023-04-28T07:59:16.917Z,40.27
2023-04-28T08:01:43.414Z,41.58
2023-04-28T08:04:11.377Z,41.00
2023-04-28T08:06:38.987Z,41.35
2023-04-28T08:09:06.336Z,41.64
2023-04-28T08:11:33.478Z,40.54
2023-04-28T08:14:02.964Z,40.93
2023-04-28T08:16:30.229Z,39.97
2023-04-28T08:18:57.107Z,40.37
2023-04-28T08:21:23.630Z,41.38
2023-04-28T08:23:50.199Z,40.25
2023-04-28T08:26:16.781Z,43.57
2023-04-28T08:28:43.371Z,42.31
2023-04-28T08:31:09.945Z,44.25
2023-04-28T08:33:36.489Z,43.31
2023-04-28T08:36:03.770Z,44.66
2023-04-28T08:38:30.321Z,45.13
2023-04-28T08:40:56.850Z,44.32
2023-04-28T08:43:24.297Z,43.96
2023-04-28T08:45:50.822Z,45.12
2023-04-28T08:48:17.882Z,44.23
2023-04-28T08:50:48.919Z,43.30
2023-04-28T08:53:18.195Z,46.03
2023-04-28T08:55:45.235Z,45.21
2023-04-28T08:58:11.932Z,45.07
2023-04-28T09:00:38.456Z,46.51
2023-04-28T09:03:05.782Z,45.03
2023-04-28T09:05:32.596Z,45.01
2023-04-28T09:08:01.812Z,46.16
2023-04-28T09:10:28.427Z,44.17
2023-04-28T09:12:58.259Z,44.75
2023-04-28T09:15:37.946Z,44.17
2023-04-28T09:18:05.142Z,45.04
2023-04-28T09:20:33.350Z,46.68
2023-04-28T09:23:12.875Z,45.76
2023-04-28T09:25:39.424Z,45.83
2023-04-28T09:28:22.108Z,45.71
2023-04-28T09:30:48.906Z,45.95
2023-04-28T09:33:16.135Z,46.13
2023-04-28T09:35:43.548Z,45.26
2023-04-28T09:38:10.069Z,45.51
2023-04-28T09:40:56.899Z,43.87
2023-04-28T09:43:24.434Z,45.39
2023-04-28T09:45:50.995Z,44.90
2023-04-28T09:48:18.972Z,44.38
2023-04-28T09:50:46.339Z,45.26
2023-04-28T09:53:13.139Z,44.49
2023-04-28T09:55:44.016Z,45.74
2023-04-28T09:58:12.348Z,45.30
2023-04-28T10:00:40.376Z,44.76
2023-04-28T10:03:09.507Z,45.65
2023-04-28T10:05:36.144Z,45.73
2023-04-28T10:08:03.745Z,46.60
2023-04-28T10:10:30.244Z,44.36
2023-04-28T10:12:57.082Z,45.36
2023-04-28T10:15:23.567Z,45.18
2023-04-28T10:17:50.785Z,45.36
2023-04-28T10:20:17.622Z,45.65
2023-04-28T10:22:50.231Z,44.02
2023-04-28T10:25:18.981Z,41.98
2023-04-28T10:27:46.839Z,42.28
2023-04-28T10:30:26.527Z,43.17
2023-04-28T10:33:06.336Z,41.44
2023-04-28T10:35:37.445Z,42.98
2023-04-28T10:38:06.879Z,42.43
2023-04-28T10:40:34.237Z,43.56
2023-04-28T10:43:01.489Z,42.61
2023-04-28T10:46:01.235Z,41.84
2023-04-28T10:48:33.961Z,43.24
2023-04-28T10:51:03.861Z,42.58
2023-04-28T10:53:45.794Z,42.96
2023-04-28T10:56:26.758Z,42.91
2023-04-28T10:58:54.042Z,42.72
2023-04-28T11:01:26.675Z,41.92
2023-04-28T11:04:08.323Z,41.87
2023-04-28T11:06:47.761Z,42.90
2023-04-28T11:09:14.566Z,41.29
2023-04-28T11:12:01.234Z,41.32
2023-04-28T11:14:31.784Z,42.04
2023-04-28T11:17:01.951Z,42.48
2023-04-28T11:19:29.658Z,42.54
2023-04-28T11:21:57.315Z,41.00
2023-04-28T11:24:27.394Z,41.27
2023-04-28T11:26:53.946Z,41.82
2023-04-28T11:29:33.585Z,43.37
2023-04-28T11:32:00.453Z,41.97
2023-04-28T11:34:27.121Z,41.86
2023-04-28T11:36:54.963Z,40.85
2023-04-28T11:39:31.623Z,41.92
2023-04-28T11:41:59.202Z,41.27
2023-04-28T11:44:27.149Z,42.51
2023-04-28T11:47:01.199Z,41.17
2023-04-28T11:49:29.180Z,41.55
2023-04-28T11:51:56.372Z,41.00
2023-04-28T11:54:26.739Z,40.82
2023-04-28T11:56:53.850Z,39.42
2023-04-28T12:01:58.969Z,39.87
2023-04-28T12:04:32.383Z,40.90
2023-04-28T12:07:03.077Z,39.29
2023-04-28T12:09:29.771Z,38.63
2023-04-28T12:11:57.756Z,38.86
2023-04-28T12:14:24.923Z,40.06
2023-04-28T12:16:51.784Z,40.67
2023-04-28T12:19:19.939Z,40.65
2023-04-28T12:21:59.518Z,39.84
2023-04-28T12:24:26.906Z,40.53
2023-04-28T12:26:54.270Z,39.97
2023-04-28T12:29:39.655Z,40.34
2023-04-28T12:32:06.808Z,40.18
2023-04-28T12:34:33.627Z,39.86
2023-04-28T12:37:00.973Z,39.92
2023-04-28T12:39:28.101Z,40.70
2023-04-28T12:41:59.314Z,40.81
2023-04-28T12:44:28.015Z,42.00
2023-04-28T12:46:55.212Z,41.70
2023-04-28T12:49:21.871Z,41.35
2023-04-28T12:51:48.460Z,41.38
2023-04-28T12:54:14.989Z,41.70
2023-04-28T12:56:41.470Z,41.76
2023-04-28T12:59:07.974Z,41.46
2023-04-28T13:01:34.562Z,42.94
2023-04-28T13:04:01.384Z,42.17
2023-04-28T13:06:28.678Z,42.71
2023-04-28T13:08:55.379Z,41.81
2023-04-28T13:11:23.151Z,43.16
2023-04-28T13:13:49.958Z,42.43
2023-04-28T13:16:16.622Z,41.29
2023-04-28T13:18:43.366Z,42.14
2023-04-28T13:21:09.979Z,42.54
2023-04-28T13:23:36.606Z,41.61
2023-04-28T13:26:04.334Z,42.99
2023-04-28T13:28:30.790Z,40.98
2023-04-28T13:30:57.305Z,42.40
2023-04-28T13:33:23.817Z,41.70
2023-04-28T13:35:50.293Z,41.54
2023-04-28T13:38:17.281Z,41.29
2023-04-28T13:40:43.852Z,42.36
2023-04-28T13:43:10.368Z,42.75
2023-04-28T13:45:36.959Z,42.99
2023-04-28T13:48:04.095Z,41.74
2023-04-28T13:50:30.781Z,42.83
2023-04-28T13:52:58.503Z,41.58
2023-04-28T13:55:27.927Z,42.37
2023-04-28T13:57:54.993Z,41.77
2023-04-28T14:00:22.342Z,42.25
2023-04-28T14:02:50.692Z,42.16
2023-04-28T14:05:17.641Z,42.16
2023-04-28T14:07:44.445Z,42.39
2023-04-28T14:10:11.944Z,43.05
2023-04-28T14:12:38.500Z,43.09
2023-04-28T14:15:05.897Z,42.40
2023-04-28T14:17:34.700Z,42.75
2023-04-28T14:20:01.822Z,42.92
2023-04-28T14:22:28.737Z,43.01
2023-04-28T14:24:55.467Z,43.68
2023-04-28T14:27:22.347Z,43.56
2023-04-28T14:29:49.199Z,42.54
2023-04-28T14:32:16.610Z,43.44
2023-04-28T14:34:43.369Z,43.30
2023-04-28T14:37:10.484Z,43.43
2023-04-28T14:39:37.239Z,43.51
2023-04-28T14:42:03.938Z,43.63
2023-04-28T14:44:30.538Z,44.65
2023-04-28T14:46:57.053Z,44.05
2023-04-28T14:49:23.747Z,44.16
2023-04-28T14:51:50.451Z,43.78
2023-04-28T14:54:17.231Z,44.46
2023-04-28T14:56:44.079Z,45.08
2023-04-28T14:59:11.604Z,44.28
2023-04-28T15:01:38.193Z,44.57
2023-04-28T15:04:05.236Z,45.15
2023-04-28T15:06:32.897Z,44.65
2023-04-28T15:08:59.406Z,44.58
2023-04-28T15:11:25.892Z,44.43
2023-04-28T15:13:52.383Z,44.86
2023-04-28T15:16:19.188Z,45.07
2023-04-28T15:18:46.131Z,44.40
2023-04-28T15:21:12.686Z,45.72
2023-04-28T15:23:39.175Z,45.43
2023-04-28T15:26:05.784Z,47.16
2023-04-28T15:28:32.465Z,45.92
2023-04-28T15:30:58.938Z,46.15
2023-04-28T15:33:25.503Z,46.22
2023-04-28T15:35:52.511Z,46.42
2023-04-28T15:38:19.003Z,45.98
2023-04-28T15:40:46.064Z,46.66
2023-04-28T15:43:13.395Z,45.70
2023-04-28T15:45:39.969Z,45.77
2023-04-28T15:48:06.755Z,46.21
2023-04-28T15:50:33.581Z,45.76
2023-04-28T15:53:00.244Z,46.79
2023-04-28T15:55:26.822Z,46.50
2023-04-28T15:57:53.448Z,46.67
2023-04-28T16:00:19.946Z,47.21
2023-04-28T16:02:46.658Z,47.37
2023-04-28T16:05:13.718Z,47.67
2023-04-28T16:07:43.759Z,47.14
2023-04-28T16:10:11.911Z,48.02
2023-04-28T16:12:39.258Z,48.03
2023-04-28T16:15:06.313Z,48.48
2023-04-28T16:17:35.810Z,48.24
2023-04-28T16:20:02.611Z,48.40
2023-04-28T16:22:29.763Z,48.65
2023-04-28T16:24:56.948Z,48.72
2023-04-28T16:27:23.557Z,48.50
2023-04-28T16:29:50.148Z,49.23
2023-04-28T16:32:16.811Z,48.80
2023-04-28T16:34:43.475Z,48.98
2023-04-28T16:37:11.586Z,49.27
2023-04-28T16:39:38.511Z,49.32
2023-04-28T16:42:05.463Z,51.12
2023-04-28T16:44:32.261Z,51.85
2023-04-28T16:46:59.217Z,52.81
2023-04-28T16:49:25.819Z,54.01
2023-04-28T16:51:59.866Z,54.13
2023-04-28T16:54:28.068Z,55.15
2023-04-28T16:56:55.211Z,57.22
2023-04-28T16:59:21.774Z,57.76
2023-04-28T17:01:48.336Z,57.74
2023-04-28T17:04:15.154Z,59.04
2023-04-28T17:06:41.869Z,59.71
2023-04-28T17:09:09.715Z,61.08
2023-04-28T17:11:39.238Z,61.53
2023-04-28T17:14:06.750Z,62.15
2023-04-28T17:16:33.926Z,63.77
2023-04-28T17:19:01.361Z,64.19
2023-04-28T17:21:31.444Z,64.77
2023-04-28T17:23:58.534Z,68.15
2023-04-28T17:26:25.310Z,72.47
2023-04-28T17:28:52.805Z,74.54
2023-04-28T17:31:19.471Z,74.86
2023-04-28T17:33:46.504Z,76.14
2023-04-28T17:36:13.039Z,77.69
2023-04-28T17:38:40.004Z,78.37
2023-04-28T17:41:06.664Z,80.03
2023-04-28T17:43:33.821Z,81.91
2023-04-28T17:46:00.570Z,83.41
2023-04-28T17:48:27.053Z,83.50
2023-04-28T17:50:54.318Z,83.66
2023-04-28T17:53:21.524Z,83.90
2023-04-28T17:55:48.228Z,84.11
2023-04-28T17:58:15.451Z,84.87
2023-04-28T18:00:42.066Z,84.76
2023-04-28T18:03:08.787Z,86.33
2023-04-28T18:05:36.320Z,86.77
2023-04-28T18:08:06.066Z,87.54
2023-04-28T18:10:32.636Z,87.19
2023-04-28T18:12:59.254Z,86.27
2023-04-28T18:15:26.271Z,85.75
2023-04-28T18:17:52.812Z,85.14
2023-04-28T18:20:19.290Z,85.08
2023-04-28T18:22:45.841Z,86.24
2023-04-28T18:25:16.684Z,86.62
2023-04-28T18:27:43.338Z,87.19
2023-04-28T18:30:10.137Z,88.03
2023-04-28T18:32:36.849Z,88.73
2023-04-28T18:35:03.425Z,89.00
2023-04-28T18:37:30.074Z,89.06
2023-04-28T18:39:57.256Z,90.07
2023-04-28T18:42:24.123Z,90.39
2023-04-28T18:44:58.328Z,90.61
2023-04-28T18:47:25.575Z,90.47
2023-04-28T18:49:52.531Z,90.89
2023-04-28T18:52:19.071Z,91.25
2023-04-28T18:54:45.693Z,91.90
2023-04-28T18:57:12.769Z,92.26
2023-04-28T18:59:39.557Z,92.77
2023-04-28T19:02:06.582Z,93.11
2023-04-28T19:04:33.428Z,92.85
2023-04-28T19:07:00.100Z,92.78
2023-04-28T19:09:26.649Z,92.83
2023-04-28T19:11:53.690Z,92.61
2023-04-28T19:14:20.124Z,92.85
2023-04-28T19:16:46.647Z,93.30
2023-04-28T19:19:13.561Z,93.43
2023-04-28T19:21:44.225Z,93.31
2023-04-28T19:24:10.844Z,93.27
2023-04-28T19:26:37.404Z,93.79
2023-04-28T19:29:03.857Z,93.62
2023-04-28T19:31:30.403Z,93.39
2023-04-28T19:33:57.793Z,92.96
2023-04-28T19:36:24.531Z,92.88
2023-04-28T19:38:51.173Z,92.57
2023-04-28T19:41:17.705Z,92.56
2023-04-28T19:43:44.186Z,92.45
2023-04-28T19:46:10.780Z,92.51
2023-04-28T19:48:37.310Z,92.28
2023-04-28T19:51:03.891Z,92.19
2023-04-28T19:53:30.481Z,92.03
2023-04-28T19:56:00.699Z,92.23
2023-04-28T19:58:27.137Z,93.08
2023-04-28T20:00:53.890Z,93.76
2023-04-28T20:03:20.641Z,93.91
2023-04-28T20:05:47.270Z,94.60
2023-04-28T20:08:13.826Z,95.02
2023-04-28T20:10:40.643Z,94.43
2023-04-28T20:13:07.143Z,94.55
2023-04-28T20:15:33.642Z,94.91
2023-04-28T20:18:00.419Z,95.33
2023-04-28T20:20:26.938Z,95.31
2023-04-28T20:22:53.405Z,95.49
2023-04-28T20:25:19.907Z,95.62
2023-04-28T20:27:46.992Z,95.71
2023-04-28T20:30:14.063Z,96.10
2023-04-28T20:32:40.781Z,95.66
2023-04-28T20:35:07.447Z,95.31
2023-04-28T20:37:34.157Z,95.22
2023-04-28T20:40:00.622Z,95.23
2023-04-28T20:42:28.014Z,95.04
2023-04-28T20:44:54.460Z,94.95
2023-04-28T20:47:20.902Z,94.70
2023-04-28T20:49:47.530Z,95.24
2023-04-28T20:52:14.004Z,95.48
2023-04-28T20:54:43.515Z,95.96
2023-04-28T20:57:10.085Z,96.02
2023-04-28T20:59:36.932Z,96.05
2023-04-28T21:02:03.698Z,95.83
2023-04-28T21:04:30.539Z,95.86
2023-04-28T21:06:57.007Z,95.86
2023-04-28T21:09:26.686Z,95.83
2023-04-28T21:11:53.205Z,96.10
2023-04-28T21:14:20.267Z,96.42
2023-04-28T21:16:46.897Z,96.42
2023-04-28T21:19:13.489Z,97.23
2023-04-28T21:21:40.043Z,97.26
2023-04-28T21:24:08.061Z,97.29
2023-04-28T21:26:35.865Z,97.54
2023-04-28T21:29:02.777Z,97.49
2023-04-28T21:31:30.477Z,97.71
2023-04-28T21:33:57.496Z,98.14
2023-04-28T21:36:24.016Z,98.27
2023-04-28T21:38:50.515Z,98.24
2023-04-28T21:41:16.992Z,98.38
2023-04-28T21:43:43.474Z,98.52
2023-04-28T21:46:10.032Z,98.63
2023-04-28T21:48:37.476Z,98.74
2023-04-28T21:51:04.091Z,98.61
2023-04-28T21:53:30.556Z,98.48
2023-04-28T21:55:57.081Z,98.50
2023-04-28T21:58:23.900Z,98.82
2023-04-28T22:00:51.236Z,99.24
2023-04-28T22:03:18.078Z,99.00
2023-04-28T22:05:44.913Z,99.68
2023-04-28T22:08:11.643Z,99.72
2023-04-28T22:10:38.373Z,100.00
2023-04-28T22:13:06.045Z,100.00
2023-04-28T22:15:32.997Z,100.00
2023-04-28T22:17:59.660Z,100.00
2023-04-28T22:20:26.416Z,100.00
2023-04-28T22:22:53.934Z,100.00
2023-04-28T22:25:20.549Z,99.74
2023-04-28T22:27:47.192Z,98.72
2023-04-28T22:30:13.930Z,96.98
2023-04-28T22:32:44.397Z,96.62
2023-04-28T22:35:14.328Z,97.23
2023-04-28T22:37:40.953Z,97.55
2023-04-28T22:40:08.490Z,97.47
2023-04-28T22:42:35.563Z,97.27
2023-04-28T22:45:03.325Z,97.16
2023-04-28T22:47:30.423Z,96.88
2023-04-28T22:49:56.933Z,96.47
2023-04-28T22:52:23.758Z,96.08
2023-04-28T22:54:50.310Z,95.77
2023-04-28T22:57:16.768Z,95.04
2023-04-28T22:59:43.252Z,91.10
2023-04-28T23:02:12.100Z,89.15
2023-04-28T23:04:38.770Z,88.83
2023-04-28T23:07:06.742Z,88.66
2023-04-28T23:09:35.964Z,88.86
2023-04-28T23:12:05.584Z,88.41
2023-04-28T23:14:32.237Z,88.25
2023-04-28T23:16:58.806Z,88.07
2023-04-28T23:19:25.373Z,87.77
2023-04-28T23:21:51.829Z,87.76
2023-04-28T23:24:18.343Z,87.40
2023-04-28T23:26:44.902Z,87.60
2023-04-28T23:29:11.553Z,87.83
2023-04-28T23:31:39.879Z,88.08
2023-04-28T23:34:06.642Z,88.54
2023-04-28T23:36:33.126Z,89.17
2023-04-28T23:38:59.654Z,89.39
2023-04-28T23:41:26.729Z,90.10
2023-04-28T23:43:53.611Z,90.63
2023-04-28T23:46:20.461Z,91.82
2023-04-28T23:48:46.941Z,92.13
2023-04-28T23:51:13.531Z,92.61
2023-04-28T23:53:40.078Z,92.85
2023-04-28T23:56:06.923Z,93.01
2023-04-28T23:58:33.439Z,92.99
